sensor_id;sensor_type;location;lat;lon;timestamp;pressure;altitude;pressure_sealevel;temperature;humidity
25130;BME280;13308;50.860;13.664;2024-03-25T05:29:40;95490.75;;;3.89;100.00
25130;BME280;13308;50.860;13.664;2024-03-25T05:32:06;95501.94;;;3.98;100.00
25130;BME280;13308;50.860;13.664;2024-03-25T05:34:31;95504.31;;;3.96;100.00
25130;BME280;13308;50.860;13.664;2024-03-25T05:36:59;95517.94;;;3.96;100.00
25130;BME280;13308;50.860;13.664;2024-03-25T05:39:25;95513.75;;;3.88;100.00
25130;BME280;13308;50.860;13.664;2024-03-25T05:41:50;95513.75;;;3.88;100.00
25130;BME280;13308;50.860;13.664;2024-03-25T05:44:15;95527.84;;;3.83;100.00
25130;BME280;13308;50.860;13.664;2024-03-25T05:46:41;95514.63;;;3.78;100.00
25130;BME280;13308;50.860;13.664;2024-03-25T05:49:06;95523.91;;;3.84;100.00
25130;BME280;13308;50.860;13.664;2024-03-25T05:51:32;95528.63;;;3.80;100.00
25130;BME280;13308;50.860;13.664;2024-03-25T05:54:01;95530.59;;;3.79;100.00
25130;BME280;13308;50.860;13.664;2024-03-25T05:56:27;95527.84;;;3.83;100.00
25130;BME280;13308;50.860;13.664;2024-03-25T05:58:59;95534.91;;;3.77;100.00
25130;BME280;13308;50.860;13.664;2024-03-25T06:01:24;95536.06;;;3.79;100.00
25130;BME280;13308;50.860;13.664;2024-03-25T06:03:50;95538.78;;;3.79;100.00
25130;BME280;13308;50.860;13.664;2024-03-25T06:06:15;95549.72;;;3.76;100.00
25130;BME280;13308;50.860;13.664;2024-03-25T06:08:41;95541.16;;;3.74;100.00
25130;BME280;13308;50.860;13.664;2024-03-25T06:11:06;95537.72;;;3.70;100.00
25130;BME280;13308;50.860;13.664;2024-03-25T06:13:32;95548.22;;;3.68;100.00
25130;BME280;13308;50.860;13.664;2024-03-25T06:15:58;95545.16;;;3.66;100.00
25130;BME280;13308;50.860;13.664;2024-03-25T06:18:23;95570.03;;;3.68;100.00
25130;BME280;13308;50.860;13.664;2024-03-25T06:20:48;95570.84;;;3.65;100.00
25130;BME280;13308;50.860;13.664;2024-03-25T06:23:24;95571.22;;;3.67;100.00
25130;BME280;13308;50.860;13.664;2024-03-25T06:25:51;95567.31;;;3.68;100.00
25130;BME280;13308;50.860;13.664;2024-03-25T06:28:17;95575.41;;;3.78;100.00
25130;BME280;13308;50.860;13.664;2024-03-25T06:30:42;95569.88;;;3.85;100.00
25130;BME280;13308;50.860;13.664;2024-03-25T06:33:26;95562.06;;;3.87;100.00
25130;BME280;13308;50.860;13.664;2024-03-25T06:36:10;95569.59;;;4.10;100.00
25130;BME280;13308;50.860;13.664;2024-03-25T06:38:35;95570.34;;;4.14;100.00
25130;BME280;13308;50.860;13.664;2024-03-25T06:41:01;95580.47;;;4.13;100.00
25130;BME280;13308;50.860;13.664;2024-03-25T06:43:26;95580.81;;;4.19;100.00
25130;BME280;13308;50.860;13.664;2024-03-25T06:45:51;95585.00;;;4.27;100.00
25130;BME280;13308;50.860;13.664;2024-03-25T06:48:16;95588.91;;;4.26;100.00
25130;BME280;13308;50.860;13.664;2024-03-25T06:51:00;95586.53;;;4.28;100.00
25130;BME280;13308;50.860;13.664;2024-03-25T06:53:28;95597.38;;;4.35;100.00
25130;BME280;13308;50.860;13.664;2024-03-25T06:55:55;95588.81;;;4.33;100.00
25130;BME280;13308;50.860;13.664;2024-03-25T06:58:21;95598.97;;;4.32;100.00
25130;BME280;13308;50.860;13.664;2024-03-25T07:00:47;95591.63;;;4.26;100.00
25130;BME280;13308;50.860;13.664;2024-03-25T07:03:19;95598.19;;;4.32;100.00
25130;BME280;13308;50.860;13.664;2024-03-25T07:05:48;95606.28;;;4.39;100.00
25130;BME280;13308;50.860;13.664;2024-03-25T07:08:14;95598.31;;;4.55;100.00
25130;BME280;13308;50.860;13.664;2024-03-25T07:10:43;95617.38;;;4.58;100.00
25130;BME280;13308;50.860;13.664;2024-03-25T07:13:08;95605.22;;;4.63;100.00
25130;BME280;13308;50.860;13.664;2024-03-25T07:15:35;95621.50;;;4.70;100.00
25130;BME280;13308;50.860;13.664;2024-03-25T07:18:00;95621.97;;;4.65;100.00
25130;BME280;13308;50.860;13.664;2024-03-25T07:20:26;95621.97;;;4.65;100.00
25130;BME280;13308;50.860;13.664;2024-03-25T07:22:52;95631.13;;;4.81;100.00
25130;BME280;13308;50.860;13.664;2024-03-25T07:25:20;95637.34;;;4.82;100.00
25130;BME280;13308;50.860;13.664;2024-03-25T07:27:45;95651.47;;;4.77;100.00
25130;BME280;13308;50.860;13.664;2024-03-25T07:30:10;95643.63;;;4.79;100.00
25130;BME280;13308;50.860;13.664;2024-03-25T07:32:36;95639.41;;;4.74;100.00
25130;BME280;13308;50.860;13.664;2024-03-25T07:35:01;95649.91;;;4.76;100.00
25130;BME280;13308;50.860;13.664;2024-03-25T07:37:26;95653.09;;;4.71;100.00
25130;BME280;13308;50.860;13.664;2024-03-25T07:39:52;95656.19;;;4.73;100.00
25130;BME280;13308;50.860;13.664;2024-03-25T07:42:17;95651.50;;;4.73;100.00
25130;BME280;13308;50.860;13.664;2024-03-25T07:44:43;95653.16;;;4.64;100.00
25130;BME280;13308;50.860;13.664;2024-03-25T07:47:08;95654.66;;;4.72;100.00
25130;BME280;13308;50.860;13.664;2024-03-25T07:49:34;95652.38;;;4.67;100.00
25130;BME280;13308;50.860;13.664;2024-03-25T07:52:00;95656.16;;;4.76;100.00
25130;BME280;13308;50.860;13.664;2024-03-25T07:54:25;95658.03;;;4.83;100.00
25130;BME280;13308;50.860;13.664;2024-03-25T07:56:52;95662.22;;;4.91;100.00
25130;BME280;13308;50.860;13.664;2024-03-25T07:59:17;95669.56;;;4.94;100.00
25130;BME280;13308;50.860;13.664;2024-03-25T08:01:43;95667.72;;;4.87;100.00
25130;BME280;13308;50.860;13.664;2024-03-25T08:04:10;95673.13;;;4.91;100.00
25130;BME280;13308;50.860;13.664;2024-03-25T08:06:35;95669.84;;;5.03;100.00
25130;BME280;13308;50.860;13.664;2024-03-25T08:09:01;95685.88;;;5.01;100.00
25130;BME280;13308;50.860;13.664;2024-03-25T08:11:26;95682.22;;;5.11;100.00
25130;BME280;13308;50.860;13.664;2024-03-25T08:13:52;95689.25;;;5.12;100.00
25130;BME280;13308;50.860;13.664;2024-03-25T08:16:17;95693.09;;;5.14;100.00
25130;BME280;13308;50.860;13.664;2024-03-25T08:18:42;95682.59;;;5.13;100.00
25130;BME280;13308;50.860;13.664;2024-03-25T08:21:09;95688.28;;;5.25;100.00
25130;BME280;13308;50.860;13.664;2024-03-25T08:23:34;95699.25;;;5.22;100.00
25130;BME280;13308;50.860;13.664;2024-03-25T08:26:00;95687.53;;;5.25;100.00
25130;BME280;13308;50.860;13.664;2024-03-25T08:28:26;95688.31;;;5.22;100.00
25130;BME280;13308;50.860;13.664;2024-03-25T08:30:51;95690.50;;;5.34;100.00
25130;BME280;13308;50.860;13.664;2024-03-25T08:33:17;95691.25;;;5.38;100.00
25130;BME280;13308;50.860;13.664;2024-03-25T08:35:42;95689.69;;;5.37;100.00
25130;BME280;13308;50.860;13.664;2024-03-25T08:38:07;95698.25;;;5.39;100.00
25130;BME280;13308;50.860;13.664;2024-03-25T08:40:33;95691.78;;;5.26;100.00
25130;BME280;13308;50.860;13.664;2024-03-25T08:42:58;95698.75;;;5.30;100.00
25130;BME280;13308;50.860;13.664;2024-03-25T08:45:24;95705.22;;;5.13;100.00
25130;BME280;13308;50.860;13.664;2024-03-25T08:47:50;95704.09;;;5.11;100.00
25130;BME280;13308;50.860;13.664;2024-03-25T08:50:15;95707.25;;;5.06;100.00
25130;BME280;13308;50.860;13.664;2024-03-25T08:52:40;95708.78;;;5.10;100.00
25130;BME280;13308;50.860;13.664;2024-03-25T08:55:06;95719.63;;;5.17;100.00
25130;BME280;13308;50.860;13.664;2024-03-25T08:57:31;95717.25;;;5.19;100.00
25130;BME280;13308;50.860;13.664;2024-03-25T08:59:57;95718.13;;;5.13;100.00
25130;BME280;13308;50.860;13.664;2024-03-25T09:02:22;95734.06;;;5.18;100.00
25130;BME280;13308;50.860;13.664;2024-03-25T09:04:47;95726.88;;;5.01;100.00
25130;BME280;13308;50.860;13.664;2024-03-25T09:07:14;95726.03;;;5.04;100.00
25130;BME280;13308;50.860;13.664;2024-03-25T09:09:39;95735.78;;;5.05;100.00
25130;BME280;13308;50.860;13.664;2024-03-25T09:12:23;95736.97;;;5.04;100.00
25130;BME280;13308;50.860;13.664;2024-03-25T09:14:49;95741.88;;;5.16;100.00
25130;BME280;13308;50.860;13.664;2024-03-25T09:17:14;95738.44;;;5.12;100.00
25130;BME280;13308;50.860;13.664;2024-03-25T09:19:41;95744.53;;;5.23;100.00
25130;BME280;13308;50.860;13.664;2024-03-25T09:22:06;95741.09;;;5.19;100.00
25130;BME280;13308;50.860;13.664;2024-03-25T09:24:31;95751.28;;;5.15;100.00
25130;BME280;13308;50.860;13.664;2024-03-25T09:26:57;95752.38;;;5.21;100.00
25130;BME280;13308;50.860;13.664;2024-03-25T09:29:22;95760.22;;;5.19;100.00
25130;BME280;13308;50.860;13.664;2024-03-25T09:31:47;95759.38;;;5.22;100.00
25130;BME280;13308;50.860;13.664;2024-03-25T09:34:13;95760.94;;;5.23;100.00
25130;BME280;13308;50.860;13.664;2024-03-25T09:36:38;95768.63;;;5.31;100.00
25130;BME280;13308;50.860;13.664;2024-03-25T09:39:04;95772.56;;;5.30;100.00
25130;BME280;13308;50.860;13.664;2024-03-25T09:41:31;95775.56;;;5.39;100.00
25130;BME280;13308;50.860;13.664;2024-03-25T09:44:00;95770.78;;;5.47;100.00
25130;BME280;13308;50.860;13.664;2024-03-25T09:46:26;95771.34;;;5.61;100.00
25130;BME280;13308;50.860;13.664;2024-03-25T09:48:53;95774.91;;;5.88;100.00
25130;BME280;13308;50.860;13.664;2024-03-25T09:51:18;95779.31;;;6.09;100.00
25130;BME280;13308;50.860;13.664;2024-03-25T09:53:44;95772.06;;;6.22;100.00
25130;BME280;13308;50.860;13.664;2024-03-25T09:56:09;95778.47;;;6.35;100.00
25130;BME280;13308;50.860;13.664;2024-03-25T09:58:35;95781.53;;;6.40;100.00
25130;BME280;13308;50.860;13.664;2024-03-25T10:01:01;95788.41;;;6.25;100.00
25130;BME280;13308;50.860;13.664;2024-03-25T10:03:26;95793.22;;;6.18;100.00
25130;BME280;13308;50.860;13.664;2024-03-25T10:05:51;95786.19;;;6.17;100.00
25130;BME280;13308;50.860;13.664;2024-03-25T10:08:21;95778.94;;;6.30;100.00
25130;BME280;13308;50.860;13.664;2024-03-25T10:10:46;95799.78;;;6.47;100.00
25130;BME280;13308;50.860;13.664;2024-03-25T10:13:11;95784.97;;;6.44;100.00
25130;BME280;13308;50.860;13.664;2024-03-25T10:15:37;95790.16;;;6.62;100.00
25130;BME280;13308;50.860;13.664;2024-03-25T10:18:02;95781.78;;;6.92;100.00
25130;BME280;13308;50.860;13.664;2024-03-25T10:20:27;95790.69;;;6.96;100.00
25130;BME280;13308;50.860;13.664;2024-03-25T10:22:53;95792.44;;;6.67;100.00
25130;BME280;13308;50.860;13.664;2024-03-25T10:25:20;95783.19;;;6.57;100.00
25130;BME280;13308;50.860;13.664;2024-03-25T10:28:10;95792.91;;;6.62;100.00
25130;BME280;13308;50.860;13.664;2024-03-25T10:30:36;95798.13;;;6.76;100.00
25130;BME280;13308;50.860;13.664;2024-03-25T10:33:04;95789.63;;;6.90;100.00
25130;BME280;13308;50.860;13.664;2024-03-25T10:35:35;95788.03;;;6.92;100.00
25130;BME280;13308;50.860;13.664;2024-03-25T10:38:09;95799.78;;;6.93;100.00
25130;BME280;13308;50.860;13.664;2024-03-25T10:40:37;95795.84;;;6.94;100.00
25130;BME280;13308;50.860;13.664;2024-03-25T10:43:05;95800.16;;;6.72;100.00
25130;BME280;13308;50.860;13.664;2024-03-25T10:45:40;95795.47;;;7.15;100.00
25130;BME280;13308;50.860;13.664;2024-03-25T10:48:19;95789.88;;;7.38;100.00
25130;BME280;13308;50.860;13.664;2024-03-25T10:50:46;95789.31;;;7.66;100.00
25130;BME280;13308;50.860;13.664;2024-03-25T10:53:11;95786.16;;;8.18;100.00
25130;BME280;13308;50.860;13.664;2024-03-25T10:55:38;95789.28;;;8.21;100.00
25130;BME280;13308;50.860;13.664;2024-03-25T10:58:04;95782.00;;;7.95;100.00
25130;BME280;13308;50.860;13.664;2024-03-25T11:00:31;95785.19;;;7.19;100.00
25130;BME280;13308;50.860;13.664;2024-03-25T11:02:59;95781.19;;;7.23;100.00
25130;BME280;13308;50.860;13.664;2024-03-25T11:05:24;95790.66;;;7.19;100.00
25130;BME280;13308;50.860;13.664;2024-03-25T11:07:50;95788.78;;;7.35;100.00
25130;BME280;13308;50.860;13.664;2024-03-25T11:10:15;95786.03;;;7.16;100.00
25130;BME280;13308;50.860;13.664;2024-03-25T11:12:41;95785.59;;;7.37;100.00
25130;BME280;13308;50.860;13.664;2024-03-25T11:15:07;95786.88;;;7.52;100.00
25130;BME280;13308;50.860;13.664;2024-03-25T11:17:33;95786.56;;;7.66;100.00
25130;BME280;13308;50.860;13.664;2024-03-25T11:20:16;95792.75;;;7.70;100.00
25130;BME280;13308;50.860;13.664;2024-03-25T11:22:51;95794.94;;;7.78;100.00
25130;BME280;13308;50.860;13.664;2024-03-25T11:25:17;95793.56;;;7.86;100.00
25130;BME280;13308;50.860;13.664;2024-03-25T11:27:45;95789.81;;;7.61;100.00
25130;BME280;13308;50.860;13.664;2024-03-25T11:30:12;95785.88;;;7.23;100.00
25130;BME280;13308;50.860;13.664;2024-03-25T11:32:51;95786.69;;;6.81;100.00
25130;BME280;13308;50.860;13.664;2024-03-25T11:35:17;95794.78;;;6.65;100.00
25130;BME280;13308;50.860;13.664;2024-03-25T11:37:43;95802.00;;;6.55;100.00
25130;BME280;13308;50.860;13.664;2024-03-25T11:40:09;95788.56;;;6.41;100.00
25130;BME280;13308;50.860;13.664;2024-03-25T11:42:42;95789.78;;;6.37;100.00
25130;BME280;13308;50.860;13.664;2024-03-25T11:45:17;95784.22;;;6.44;100.00
25130;BME280;13308;50.860;13.664;2024-03-25T11:47:43;95788.69;;;6.34;100.00
25130;BME280;13308;50.860;13.664;2024-03-25T11:50:11;95786.94;;;6.67;100.00
25130;BME280;13308;50.860;13.664;2024-03-25T11:52:37;95802.59;;;6.66;100.00
25130;BME280;13308;50.860;13.664;2024-03-25T11:55:05;95791.22;;;6.68;100.00
25130;BME280;13308;50.860;13.664;2024-03-25T11:57:31;95793.44;;;6.76;100.00
25130;BME280;13308;50.860;13.664;2024-03-25T11:59:59;95791.56;;;6.93;100.00
25130;BME280;13308;50.860;13.664;2024-03-25T12:02:26;95795.78;;;6.97;100.00
25130;BME280;13308;50.860;13.664;2024-03-25T12:04:52;95786.22;;;6.63;100.00
25130;BME280;13308;50.860;13.664;2024-03-25T12:07:17;95796.84;;;6.61;100.00
25130;BME280;13308;50.860;13.664;2024-03-25T12:09:43;95789.09;;;6.33;100.00
25130;BME280;13308;50.860;13.664;2024-03-25T12:12:27;95802.31;;;6.38;100.00
25130;BME280;13308;50.860;13.664;2024-03-25T12:14:53;95791.03;;;6.32;100.00
25130;BME280;13308;50.860;13.664;2024-03-25T12:17:20;95793.72;;;6.36;100.00
25130;BME280;13308;50.860;13.664;2024-03-25T12:19:59;95790.38;;;6.48;100.00
25130;BME280;13308;50.860;13.664;2024-03-25T12:22:26;95793.63;;;6.43;100.00
25130;BME280;13308;50.860;13.664;2024-03-25T12:24:52;95792.66;;;6.53;100.00
25130;BME280;13308;50.860;13.664;2024-03-25T12:27:17;95789.78;;;6.37;100.00
25130;BME280;13308;50.860;13.664;2024-03-25T12:29:43;95795.94;;;6.44;100.00
25130;BME280;13308;50.860;13.664;2024-03-25T12:32:09;95783.31;;;6.50;100.00
25130;BME280;13308;50.860;13.664;2024-03-25T12:34:35;95796.66;;;6.48;100.00
25130;BME280;13308;50.860;13.664;2024-03-25T12:37:03;95797.53;;;6.42;100.00
25130;BME280;13308;50.860;13.664;2024-03-25T12:39:31;95800.84;;;6.30;100.00
25130;BME280;13308;50.860;13.664;2024-03-25T12:41:56;95798.50;;;6.32;100.00
25130;BME280;13308;50.860;13.664;2024-03-25T12:44:23;95799.31;;;6.29;100.00
25130;BME280;13308;50.860;13.664;2024-03-25T12:46:48;95797.88;;;6.21;100.00
25130;BME280;13308;50.860;13.664;2024-03-25T12:49:13;95796.75;;;6.18;100.00
25130;BME280;13308;50.860;13.664;2024-03-25T12:51:39;95798.81;;;6.11;100.00
25130;BME280;13308;50.860;13.664;2024-03-25T12:54:04;95795.16;;;6.21;100.00
25130;BME280;13308;50.860;13.664;2024-03-25T12:56:30;95793.38;;;6.34;100.00
25130;BME280;13308;50.860;13.664;2024-03-25T12:58:55;95793.72;;;6.36;100.00
25130;BME280;13308;50.860;13.664;2024-03-25T13:01:20;95795.97;;;6.41;100.00
25130;BME280;13308;50.860;13.664;2024-03-25T13:03:45;95800.16;;;6.72;100.00
25130;BME280;13308;50.860;13.664;2024-03-25T13:06:11;95785.59;;;6.98;100.00
25130;BME280;13308;50.860;13.664;2024-03-25T13:08:36;95787.00;;;7.06;100.00
25130;BME280;13308;50.860;13.664;2024-03-25T13:11:01;95797.78;;;7.55;100.00
25130;BME280;13308;50.860;13.664;2024-03-25T13:13:27;95793.84;;;7.92;100.00
25130;BME280;13308;50.860;13.664;2024-03-25T13:15:52;95789.47;;;8.46;100.00
25130;BME280;13308;50.860;13.664;2024-03-25T13:18:17;95790.66;;;8.60;100.00
25130;BME280;13308;50.860;13.664;2024-03-25T13:20:46;95784.63;;;8.81;100.00
25130;BME280;13308;50.860;13.664;2024-03-25T13:23:11;95787.66;;;8.55;100.00
25130;BME280;13308;50.860;13.664;2024-03-25T13:25:36;95789.47;;;8.46;100.00
25130;BME280;13308;50.860;13.664;2024-03-25T13:28:02;95790.00;;;8.41;100.00
25130;BME280;13308;50.860;13.664;2024-03-25T13:30:29;95791.69;;;8.50;100.00
25130;BME280;13308;50.860;13.664;2024-03-25T13:32:55;95790.31;;;8.58;100.00
25130;BME280;13308;50.860;13.664;2024-03-25T13:35:20;95790.06;;;8.53;100.00
25130;BME280;13308;50.860;13.664;2024-03-25T13:37:46;95791.44;;;8.45;100.00
25130;BME280;13308;50.860;13.664;2024-03-25T13:40:11;95788.09;;;8.38;100.00
25130;BME280;13308;50.860;13.664;2024-03-25T13:42:37;95803.41;;;8.19;100.00
25130;BME280;13308;50.860;13.664;2024-03-25T13:45:04;95807.63;;;7.88;100.00
25130;BME280;13308;50.860;13.664;2024-03-25T13:47:29;95808.66;;;7.59;100.00
25130;BME280;13308;50.860;13.664;2024-03-25T13:50:02;95804.88;;;7.53;100.00
25130;BME280;13308;50.860;13.664;2024-03-25T13:52:28;95814.66;;;7.54;100.00
25130;BME280;13308;50.860;13.664;2024-03-25T13:54:53;95803.00;;;8.68;100.00
25130;BME280;13308;50.860;13.664;2024-03-25T13:57:18;95805.66;;;10.27;100.00
25130;BME280;13308;50.860;13.664;2024-03-25T13:59:44;95803.19;;;12.11;100.00
25130;BME280;13308;50.860;13.664;2024-03-25T14:02:09;95807.28;;;13.43;94.89
25130;BME280;13308;50.860;13.664;2024-03-25T14:04:34;95818.78;;;14.97;87.55
25130;BME280;13308;50.860;13.664;2024-03-25T14:06:59;95813.50;;;16.22;74.66
25130;BME280;13308;50.860;13.664;2024-03-25T14:09:25;95815.22;;;16.19;66.36
25130;BME280;13308;50.860;13.664;2024-03-25T14:11:51;95816.13;;;17.03;64.49
25130;BME280;13308;50.860;13.664;2024-03-25T14:14:16;95817.44;;;18.59;60.05
25130;BME280;13308;50.860;13.664;2024-03-25T14:16:42;95813.97;;;17.93;53.05
25130;BME280;13308;50.860;13.664;2024-03-25T14:19:07;95805.66;;;18.75;55.03
25130;BME280;13308;50.860;13.664;2024-03-25T14:21:33;95820.72;;;19.61;54.06
25130;BME280;13308;50.860;13.664;2024-03-25T14:23:58;95824.94;;;19.98;48.70
25130;BME280;13308;50.860;13.664;2024-03-25T14:26:23;95815.69;;;18.92;45.83
25130;BME280;13308;50.860;13.664;2024-03-25T14:28:49;95808.44;;;18.18;46.73
25130;BME280;13308;50.860;13.664;2024-03-25T14:31:14;95804.47;;;18.05;46.93
25130;BME280;13308;50.860;13.664;2024-03-25T14:33:39;95810.34;;;18.32;48.03
25130;BME280;13308;50.860;13.664;2024-03-25T14:36:05;95806.66;;;17.95;47.00
25130;BME280;13308;50.860;13.664;2024-03-25T14:38:30;95799.00;;;17.30;46.20
25130;BME280;13308;50.860;13.664;2024-03-25T14:40:55;95795.38;;;17.24;46.98
25130;BME280;13308;50.860;13.664;2024-03-25T14:43:21;95793.38;;;17.25;46.71
25130;BME280;13308;50.860;13.664;2024-03-25T14:45:46;95778.38;;;14.63;51.64
25130;BME280;13308;50.860;13.664;2024-03-25T14:48:12;95769.69;;;13.78;52.76
25130;BME280;13308;50.860;13.664;2024-03-25T14:50:37;95772.38;;;14.14;52.64
25130;BME280;13308;50.860;13.664;2024-03-25T14:53:03;95758.25;;;12.77;54.61
25130;BME280;13308;50.860;13.664;2024-03-25T14:55:29;95771.88;;;13.56;54.63
25130;BME280;13308;50.860;13.664;2024-03-25T14:57:55;95760.22;;;12.59;55.73
25130;BME280;13308;50.860;13.664;2024-03-25T15:00:20;95747.19;;;11.89;58.04
25130;BME280;13308;50.860;13.664;2024-03-25T15:02:46;95748.59;;;11.94;59.82
25130;BME280;13308;50.860;13.664;2024-03-25T15:05:11;95749.78;;;11.41;62.01
25130;BME280;13308;50.860;13.664;2024-03-25T15:07:37;95754.09;;;11.08;66.96
25130;BME280;13308;50.860;13.664;2024-03-25T15:10:03;95759.84;;;10.79;68.25
25130;BME280;13308;50.860;13.664;2024-03-25T15:12:28;95759.41;;;10.68;70.58
25130;BME280;13308;50.860;13.664;2024-03-25T15:14:53;95762.53;;;10.45;71.85
25130;BME280;13308;50.860;13.664;2024-03-25T15:17:19;95761.47;;;10.30;73.82
25130;BME280;13308;50.860;13.664;2024-03-25T15:19:44;95754.84;;;10.15;75.73
25130;BME280;13308;50.860;13.664;2024-03-25T15:22:10;95765.22;;;10.36;78.20
25130;BME280;13308;50.860;13.664;2024-03-25T15:24:35;95750.00;;;10.19;77.81
25130;BME280;13308;50.860;13.664;2024-03-25T15:27:00;95754.81;;;10.65;77.51
25130;BME280;13308;50.860;13.664;2024-03-25T15:29:26;95753.78;;;10.72;78.30
25130;BME280;13308;50.860;13.664;2024-03-25T15:31:52;95759.09;;;12.08;74.36
25130;BME280;13308;50.860;13.664;2024-03-25T15:34:19;95762.19;;;13.07;67.54
25130;BME280;13308;50.860;13.664;2024-03-25T15:36:44;95759.53;;;12.85;64.77
25130;BME280;13308;50.860;13.664;2024-03-25T15:39:09;95755.19;;;12.84;65.16
25130;BME280;13308;50.860;13.664;2024-03-25T15:41:34;95746.41;;;12.19;66.28
25130;BME280;13308;50.860;13.664;2024-03-25T15:44:00;95752.19;;;12.03;66.53
25130;BME280;13308;50.860;13.664;2024-03-25T15:46:25;95754.03;;;13.30;64.63
25130;BME280;13308;50.860;13.664;2024-03-25T15:48:50;95756.50;;;13.28;61.12
25130;BME280;13308;50.860;13.664;2024-03-25T15:51:16;95746.53;;;12.55;63.96
25130;BME280;13308;50.860;13.664;2024-03-25T15:53:42;95746.56;;;11.85;64.58
25130;BME280;13308;50.860;13.664;2024-03-25T15:56:08;95746.88;;;11.44;63.76
25130;BME280;13308;50.860;13.664;2024-03-25T15:58:33;95742.31;;;11.07;66.48
25130;BME280;13308;50.860;13.664;2024-03-25T16:00:59;95738.47;;;10.58;69.53
25130;BME280;13308;50.860;13.664;2024-03-25T16:03:25;95724.84;;;10.17;72.68
25130;BME280;13308;50.860;13.664;2024-03-25T16:05:50;95729.59;;;9.67;75.03
25130;BME280;13308;50.860;13.664;2024-03-25T16:08:16;95730.72;;;9.28;75.56
25130;BME280;13308;50.860;13.664;2024-03-25T16:10:41;95732.63;;;9.15;76.23
25130;BME280;13308;50.860;13.664;2024-03-25T16:13:06;95722.22;;;9.23;79.38
25130;BME280;13308;50.860;13.664;2024-03-25T16:15:33;95720.44;;;8.88;82.25
25130;BME280;13308;50.860;13.664;2024-03-25T16:17:59;95711.28;;;8.62;80.75
25130;BME280;13308;50.860;13.664;2024-03-25T16:20:31;95714.75;;;8.50;80.61
25130;BME280;13308;50.860;13.664;2024-03-25T16:22:56;95712.38;;;8.37;82.98
25130;BME280;13308;50.860;13.664;2024-03-25T16:25:22;95709.13;;;8.26;85.22
25130;BME280;13308;50.860;13.664;2024-03-25T16:27:50;95703.63;;;8.26;87.75
25130;BME280;13308;50.860;13.664;2024-03-25T16:30:16;95706.88;;;8.37;88.82
25130;BME280;13308;50.860;13.664;2024-03-25T16:32:41;95705.13;;;8.58;86.15
25130;BME280;13308;50.860;13.664;2024-03-25T16:35:07;95702.59;;;8.36;87.97
25130;BME280;13308;50.860;13.664;2024-03-25T16:37:34;95700.13;;;8.25;88.49
25130;BME280;13308;50.860;13.664;2024-03-25T16:39:59;95701.91;;;8.32;86.91
25130;BME280;13308;50.860;13.664;2024-03-25T16:42:24;95705.66;;;8.06;88.38
25130;BME280;13308;50.860;13.664;2024-03-25T16:44:50;95702.41;;;7.95;91.43
25130;BME280;13308;50.860;13.664;2024-03-25T16:47:15;95697.41;;;7.74;93.01
25130;BME280;13308;50.860;13.664;2024-03-25T16:49:41;95705.03;;;7.66;92.56
25130;BME280;13308;50.860;13.664;2024-03-25T16:52:07;95702.66;;;7.49;96.06
25130;BME280;13308;50.860;13.664;2024-03-25T16:54:32;95708.81;;;7.37;96.92
25130;BME280;13308;50.860;13.664;2024-03-25T16:56:58;95706.38;;;7.23;98.75
25130;BME280;13308;50.860;13.664;2024-03-25T16:59:23;95705.19;;;7.04;100.00
25130;BME280;13308;50.860;13.664;2024-03-25T17:01:49;95701.13;;;6.93;100.00
25130;BME280;13308;50.860;13.664;2024-03-25T17:04:15;95696.59;;;6.83;100.00
25130;BME280;13308;50.860;13.664;2024-03-25T17:06:42;95699.31;;;6.63;100.00
25130;BME280;13308;50.860;13.664;2024-03-25T17:09:07;95693.78;;;6.47;100.00
25130;BME280;13308;50.860;13.664;2024-03-25T17:11:34;95694.09;;;6.07;100.00
25130;BME280;13308;50.860;13.664;2024-03-25T17:13:59;95695.97;;;5.87;100.00
25130;BME280;13308;50.860;13.664;2024-03-25T17:16:25;95698.19;;;5.69;100.00
25130;BME280;13308;50.860;13.664;2024-03-25T17:18:50;95702.38;;;5.50;100.00
25130;BME280;13308;50.860;13.664;2024-03-25T17:21:17;95697.91;;;5.37;100.00
25130;BME280;13308;50.860;13.664;2024-03-25T17:23:42;95697.63;;;5.28;100.00
25130;BME280;13308;50.860;13.664;2024-03-25T17:26:07;95703.31;;;5.10;100.00
25130;BME280;13308;50.860;13.664;2024-03-25T17:28:33;95702.69;;;4.99;100.00
25130;BME280;13308;50.860;13.664;2024-03-25T17:31:04;95696.53;;;4.92;100.00
25130;BME280;13308;50.860;13.664;2024-03-25T17:33:29;95694.34;;;4.80;100.00
25130;BME280;13308;50.860;13.664;2024-03-25T17:35:55;95702.25;;;4.71;100.00
25130;BME280;13308;50.860;13.664;2024-03-25T17:38:20;95698.88;;;4.60;100.00
25130;BME280;13308;50.860;13.664;2024-03-25T17:40:46;95693.13;;;4.47;100.00
25130;BME280;13308;50.860;13.664;2024-03-25T17:43:12;95694.41;;;4.39;100.00
25130;BME280;13308;50.860;13.664;2024-03-25T17:45:37;95698.03;;;4.26;100.00
25130;BME280;13308;50.860;13.664;2024-03-25T17:48:03;95702.50;;;4.09;100.00
25130;BME280;13308;50.860;13.664;2024-03-25T17:50:29;95700.66;;;3.96;100.00
25130;BME280;13308;50.860;13.664;2024-03-25T17:52:54;95699.91;;;3.92;100.00
25130;BME280;13308;50.860;13.664;2024-03-25T17:55:20;95712.38;;;3.93;100.00
25130;BME280;13308;50.860;13.664;2024-03-25T17:57:45;95706.25;;;3.82;100.00
25130;BME280;13308;50.860;13.664;2024-03-25T18:00:10;95712.59;;;3.65;100.00
25130;BME280;13308;50.860;13.664;2024-03-25T18:02:36;95719.25;;;3.60;100.00
25130;BME280;13308;50.860;13.664;2024-03-25T18:05:02;95721.31;;;3.46;100.00
25130;BME280;13308;50.860;13.664;2024-03-25T18:07:27;95719.38;;;3.43;100.00
25130;BME280;13308;50.860;13.664;2024-03-25T18:09:53;95717.88;;;3.31;100.00
25130;BME280;13308;50.860;13.664;2024-03-25T18:12:19;95715.94;;;3.28;100.00
25130;BME280;13308;50.860;13.664;2024-03-25T18:14:44;95713.69;;;3.16;100.00